Terminal Aerodrome Forecast
Issued by NWS Wilmington, NC

Home | Current Version | Previous Version | Text Only | Print | Product List | Glossary On
Versions: 1 2 3 4 5 6 7 8 9 10 11 12 13 14 15
000
FTUS42 KILM 282322
TAFFLO
TAF
KFLO 282322Z 2900/2924 19008KT P6SM FEW040
     FM290700 19006KT P6SM SCT008
     FM291300 21009KT P6SM SCT025=

USA.gov is the U.S. government's official web portal to all federal, state and local government web resources and services.